sensor_id;sensor_type;location;lat;lon;timestamp;P1;durP1;ratioP1;P2;durP2;ratioP2
39400;SDS011;54391;50.000;7.360;2022-10-16T00:00:42;0.75;;;0.50;;
39400;SDS011;54391;50.000;7.360;2022-10-16T00:03:10;1.10;;;0.50;;
39400;SDS011;54391;50.000;7.360;2022-10-16T00:05:38;0.80;;;0.55;;
39400;SDS011;54391;50.000;7.360;2022-10-16T00:08:06;0.93;;;0.43;;
39400;SDS011;54391;50.000;7.360;2022-10-16T00:10:34;1.27;;;0.60;;
39400;SDS011;54391;50.000;7.360;2022-10-16T00:13:04;0.95;;;0.60;;
39400;SDS011;54391;50.000;7.360;2022-10-16T00:15:32;0.73;;;0.50;;
39400;SDS011;54391;50.000;7.360;2022-10-16T00:18:01;1.60;;;0.70;;
39400;SDS011;54391;50.000;7.360;2022-10-16T00:20:29;0.60;;;0.40;;
39400;SDS011;54391;50.000;7.360;2022-10-16T00:23:17;0.60;;;0.40;;
39400;SDS011;54391;50.000;7.360;2022-10-16T00:25:45;1.73;;;0.50;;
39400;SDS011;54391;50.000;7.360;2022-10-16T00:28:23;0.77;;;0.47;;
39400;SDS011;54391;50.000;7.360;2022-10-16T00:30:51;0.70;;;0.40;;
39400;SDS011;54391;50.000;7.360;2022-10-16T00:33:18;0.88;;;0.40;;
39400;SDS011;54391;50.000;7.360;2022-10-16T00:35:45;0.30;;;0.30;;
39400;SDS011;54391;50.000;7.360;2022-10-16T00:38:13;0.38;;;0.30;;
39400;SDS011;54391;50.000;7.360;2022-10-16T00:40:41;0.60;;;0.40;;
39400;SDS011;54391;50.000;7.360;2022-10-16T00:43:12;0.82;;;0.40;;
39400;SDS011;54391;50.000;7.360;2022-10-16T00:45:42;0.60;;;0.40;;
39400;SDS011;54391;50.000;7.360;2022-10-16T00:48:11;1.80;;;0.40;;
39400;SDS011;54391;50.000;7.360;2022-10-16T00:50:40;2.13;;;0.40;;
39400;SDS011;54391;50.000;7.360;2022-10-16T00:53:09;0.60;;;0.40;;
39400;SDS011;54391;50.000;7.360;2022-10-16T00:55:38;0.70;;;0.50;;
39400;SDS011;54391;50.000;7.360;2022-10-16T00:58:05;0.55;;;0.43;;
39400;SDS011;54391;50.000;7.360;2022-10-16T01:00:33;1.08;;;0.60;;
39400;SDS011;54391;50.000;7.360;2022-10-16T01:03:02;0.68;;;0.47;;
39400;SDS011;54391;50.000;7.360;2022-10-16T01:05:47;0.90;;;0.52;;
39400;SDS011;54391;50.000;7.360;2022-10-16T01:08:34;0.65;;;0.57;;
39400;SDS011;54391;50.000;7.360;2022-10-16T01:11:07;0.90;;;0.60;;
39400;SDS011;54391;50.000;7.360;2022-10-16T01:13:40;1.73;;;0.80;;
39400;SDS011;54391;50.000;7.360;2022-10-16T01:16:12;1.20;;;0.60;;
39400;SDS011;54391;50.000;7.360;2022-10-16T01:18:44;1.52;;;0.55;;
39400;SDS011;54391;50.000;7.360;2022-10-16T01:21:14;0.88;;;0.60;;
39400;SDS011;54391;50.000;7.360;2022-10-16T01:23:48;0.65;;;0.52;;
39400;SDS011;54391;50.000;7.360;2022-10-16T01:26:28;0.90;;;0.70;;
39400;SDS011;54391;50.000;7.360;2022-10-16T01:29:05;0.65;;;0.50;;
39400;SDS011;54391;50.000;7.360;2022-10-16T01:34:08;4.68;;;1.17;;
39400;SDS011;54391;50.000;7.360;2022-10-16T01:36:42;1.00;;;0.50;;
39400;SDS011;54391;50.000;7.360;2022-10-16T01:39:15;0.68;;;0.55;;
39400;SDS011;54391;50.000;7.360;2022-10-16T01:41:47;0.52;;;0.40;;
39400;SDS011;54391;50.000;7.360;2022-10-16T01:44:20;0.60;;;0.55;;
39400;SDS011;54391;50.000;7.360;2022-10-16T01:46:52;1.58;;;0.63;;
39400;SDS011;54391;50.000;7.360;2022-10-16T01:49:20;1.15;;;0.50;;
39400;SDS011;54391;50.000;7.360;2022-10-16T01:51:50;0.50;;;0.38;;
39400;SDS011;54391;50.000;7.360;2022-10-16T01:54:20;0.50;;;0.40;;
39400;SDS011;54391;50.000;7.360;2022-10-16T01:56:52;0.50;;;0.40;;
39400;SDS011;54391;50.000;7.360;2022-10-16T01:59:23;0.20;;;0.20;;
39400;SDS011;54391;50.000;7.360;2022-10-16T02:01:56;2.55;;;0.43;;
39400;SDS011;54391;50.000;7.360;2022-10-16T02:04:30;0.43;;;0.10;;
39400;SDS011;54391;50.000;7.360;2022-10-16T02:07:01;0.35;;;0.20;;
39400;SDS011;54391;50.000;7.360;2022-10-16T02:09:29;0.35;;;0.20;;
39400;SDS011;54391;50.000;7.360;2022-10-16T02:11:56;0.40;;;0.30;;
39400;SDS011;54391;50.000;7.360;2022-10-16T02:14:30;0.65;;;0.57;;
39400;SDS011;54391;50.000;7.360;2022-10-16T02:16:58;0.52;;;0.52;;
39400;SDS011;54391;50.000;7.360;2022-10-16T02:19:27;2.17;;;0.60;;
39400;SDS011;54391;50.000;7.360;2022-10-16T02:21:55;0.77;;;0.60;;
39400;SDS011;54391;50.000;7.360;2022-10-16T02:24:26;0.73;;;0.70;;
39400;SDS011;54391;50.000;7.360;2022-10-16T02:26:57;0.30;;;0.30;;
39400;SDS011;54391;50.000;7.360;2022-10-16T02:29:35;1.58;;;0.50;;
39400;SDS011;54391;50.000;7.360;2022-10-16T02:32:05;1.40;;;0.47;;
39400;SDS011;54391;50.000;7.360;2022-10-16T02:34:35;0.63;;;0.50;;
39400;SDS011;54391;50.000;7.360;2022-10-16T02:37:03;0.50;;;0.40;;
39400;SDS011;54391;50.000;7.360;2022-10-16T02:39:32;1.75;;;0.50;;
39400;SDS011;54391;50.000;7.360;2022-10-16T02:42:00;0.40;;;0.40;;
39400;SDS011;54391;50.000;7.360;2022-10-16T02:44:28;1.20;;;0.50;;
39400;SDS011;54391;50.000;7.360;2022-10-16T02:46:57;0.60;;;0.50;;
39400;SDS011;54391;50.000;7.360;2022-10-16T02:49:24;0.68;;;0.50;;
39400;SDS011;54391;50.000;7.360;2022-10-16T02:51:51;1.23;;;0.60;;
39400;SDS011;54391;50.000;7.360;2022-10-16T02:54:19;0.77;;;0.60;;
39400;SDS011;54391;50.000;7.360;2022-10-16T02:56:46;1.00;;;0.50;;
39400;SDS011;54391;50.000;7.360;2022-10-16T02:59:13;0.90;;;0.68;;
39400;SDS011;54391;50.000;7.360;2022-10-16T03:01:41;0.50;;;0.50;;
39400;SDS011;54391;50.000;7.360;2022-10-16T03:04:10;1.15;;;0.60;;
39400;SDS011;54391;50.000;7.360;2022-10-16T03:06:38;1.35;;;0.40;;
39400;SDS011;54391;50.000;7.360;2022-10-16T03:09:05;2.25;;;0.60;;
39400;SDS011;54391;50.000;7.360;2022-10-16T03:11:33;1.08;;;0.40;;
39400;SDS011;54391;50.000;7.360;2022-10-16T03:14:00;0.52;;;0.30;;
39400;SDS011;54391;50.000;7.360;2022-10-16T03:16:28;0.63;;;0.40;;
39400;SDS011;54391;50.000;7.360;2022-10-16T03:18:55;0.32;;;0.20;;
39400;SDS011;54391;50.000;7.360;2022-10-16T03:21:24;0.57;;;0.20;;
39400;SDS011;54391;50.000;7.360;2022-10-16T03:23:52;0.47;;;0.45;;
39400;SDS011;54391;50.000;7.360;2022-10-16T03:26:19;0.47;;;0.28;;
39400;SDS011;54391;50.000;7.360;2022-10-16T03:28:46;0.30;;;0.20;;
39400;SDS011;54391;50.000;7.360;2022-10-16T03:31:14;0.20;;;0.10;;
39400;SDS011;54391;50.000;7.360;2022-10-16T03:33:41;0.25;;;0.20;;
39400;SDS011;54391;50.000;7.360;2022-10-16T03:36:08;0.30;;;0.20;;
39400;SDS011;54391;50.000;7.360;2022-10-16T03:38:37;0.75;;;0.20;;
39400;SDS011;54391;50.000;7.360;2022-10-16T03:41:04;1.05;;;0.20;;
39400;SDS011;54391;50.000;7.360;2022-10-16T03:43:33;0.20;;;0.20;;
39400;SDS011;54391;50.000;7.360;2022-10-16T03:46:00;0.15;;;0.15;;
39400;SDS011;54391;50.000;7.360;2022-10-16T03:48:28;0.93;;;0.20;;
39400;SDS011;54391;50.000;7.360;2022-10-16T03:50:56;0.30;;;0.20;;
39400;SDS011;54391;50.000;7.360;2022-10-16T03:53:23;0.32;;;0.20;;
39400;SDS011;54391;50.000;7.360;2022-10-16T03:55:52;0.38;;;0.20;;
39400;SDS011;54391;50.000;7.360;2022-10-16T03:58:19;0.40;;;0.30;;
39400;SDS011;54391;50.000;7.360;2022-10-16T04:00:47;0.68;;;0.30;;
39400;SDS011;54391;50.000;7.360;2022-10-16T04:03:15;0.98;;;0.40;;
39400;SDS011;54391;50.000;7.360;2022-10-16T04:05:44;0.43;;;0.32;;
39400;SDS011;54391;50.000;7.360;2022-10-16T04:08:11;0.43;;;0.20;;
39400;SDS011;54391;50.000;7.360;2022-10-16T04:10:38;1.38;;;0.30;;
39400;SDS011;54391;50.000;7.360;2022-10-16T04:13:07;0.40;;;0.30;;
39400;SDS011;54391;50.000;7.360;2022-10-16T04:15:35;0.57;;;0.30;;
39400;SDS011;54391;50.000;7.360;2022-10-16T04:18:02;0.38;;;0.22;;
39400;SDS011;54391;50.000;7.360;2022-10-16T04:20:30;0.30;;;0.30;;
39400;SDS011;54391;50.000;7.360;2022-10-16T04:22:58;0.40;;;0.22;;
39400;SDS011;54391;50.000;7.360;2022-10-16T04:25:27;0.25;;;0.20;;
39400;SDS011;54391;50.000;7.360;2022-10-16T04:27:55;0.55;;;0.32;;
39400;SDS011;54391;50.000;7.360;2022-10-16T04:30:24;1.75;;;0.30;;
39400;SDS011;54391;50.000;7.360;2022-10-16T04:32:52;0.30;;;0.30;;
39400;SDS011;54391;50.000;7.360;2022-10-16T04:35:20;1.30;;;0.40;;
39400;SDS011;54391;50.000;7.360;2022-10-16T04:37:48;0.32;;;0.20;;
39400;SDS011;54391;50.000;7.360;2022-10-16T04:40:15;1.20;;;0.40;;
39400;SDS011;54391;50.000;7.360;2022-10-16T04:42:43;0.30;;;0.30;;
39400;SDS011;54391;50.000;7.360;2022-10-16T04:45:11;0.40;;;0.40;;
39400;SDS011;54391;50.000;7.360;2022-10-16T04:47:40;0.68;;;0.30;;
39400;SDS011;54391;50.000;7.360;2022-10-16T04:50:07;0.25;;;0.20;;
39400;SDS011;54391;50.000;7.360;2022-10-16T04:52:35;0.40;;;0.30;;
39400;SDS011;54391;50.000;7.360;2022-10-16T04:55:03;0.45;;;0.30;;
39400;SDS011;54391;50.000;7.360;2022-10-16T04:57:31;0.52;;;0.40;;
39400;SDS011;54391;50.000;7.360;2022-10-16T04:59:59;0.85;;;0.30;;
39400;SDS011;54391;50.000;7.360;2022-10-16T05:02:28;0.88;;;0.20;;
39400;SDS011;54391;50.000;7.360;2022-10-16T05:04:57;8.98;;;1.23;;
39400;SDS011;54391;50.000;7.360;2022-10-16T05:07:24;4.68;;;1.27;;
39400;SDS011;54391;50.000;7.360;2022-10-16T05:09:52;46.00;;;9.15;;
39400;SDS011;54391;50.000;7.360;2022-10-16T05:12:20;39.08;;;9.13;;
39400;SDS011;54391;50.000;7.360;2022-10-16T05:14:48;60.28;;;10.40;;
39400;SDS011;54391;50.000;7.360;2022-10-16T05:17:15;53.17;;;11.63;;
39400;SDS011;54391;50.000;7.360;2022-10-16T05:19:43;22.00;;;4.25;;
39400;SDS011;54391;50.000;7.360;2022-10-16T05:22:13;1.30;;;0.60;;
39400;SDS011;54391;50.000;7.360;2022-10-16T05:24:40;55.22;;;9.43;;
39400;SDS011;54391;50.000;7.360;2022-10-16T05:27:07;1.67;;;0.73;;
39400;SDS011;54391;50.000;7.360;2022-10-16T05:29:35;2.45;;;0.75;;
39400;SDS011;54391;50.000;7.360;2022-10-16T05:32:02;2.35;;;0.57;;
39400;SDS011;54391;50.000;7.360;2022-10-16T05:34:30;1.83;;;0.45;;
39400;SDS011;54391;50.000;7.360;2022-10-16T05:36:57;1.15;;;0.43;;
39400;SDS011;54391;50.000;7.360;2022-10-16T05:39:26;14.98;;;3.55;;
39400;SDS011;54391;50.000;7.360;2022-10-16T05:41:53;11.88;;;2.25;;
39400;SDS011;54391;50.000;7.360;2022-10-16T05:44:21;2.63;;;0.63;;
39400;SDS011;54391;50.000;7.360;2022-10-16T05:46:48;1.05;;;0.30;;
39400;SDS011;54391;50.000;7.360;2022-10-16T05:49:16;2.28;;;0.80;;
39400;SDS011;54391;50.000;7.360;2022-10-16T05:51:43;1.23;;;0.88;;
39400;SDS011;54391;50.000;7.360;2022-10-16T05:54:10;1.30;;;0.60;;
39400;SDS011;54391;50.000;7.360;2022-10-16T05:56:39;10.35;;;2.40;;
39400;SDS011;54391;50.000;7.360;2022-10-16T05:59:06;8.25;;;1.65;;
39400;SDS011;54391;50.000;7.360;2022-10-16T06:01:34;0.57;;;0.30;;
39400;SDS011;54391;50.000;7.360;2022-10-16T06:04:01;0.57;;;0.30;;
39400;SDS011;54391;50.000;7.360;2022-10-16T06:06:29;3.50;;;0.70;;
39400;SDS011;54391;50.000;7.360;2022-10-16T06:08:56;13.15;;;3.05;;
39400;SDS011;54391;50.000;7.360;2022-10-16T06:11:25;0.35;;;0.30;;
39400;SDS011;54391;50.000;7.360;2022-10-16T06:13:56;3.38;;;0.80;;
39400;SDS011;54391;50.000;7.360;2022-10-16T06:16:27;33.65;;;6.88;;
39400;SDS011;54391;50.000;7.360;2022-10-16T06:18:55;41.53;;;8.07;;
39400;SDS011;54391;50.000;7.360;2022-10-16T06:21:24;0.90;;;0.35;;
39400;SDS011;54391;50.000;7.360;2022-10-16T06:23:53;34.97;;;7.38;;
39400;SDS011;54391;50.000;7.360;2022-10-16T06:26:22;38.35;;;7.68;;
39400;SDS011;54391;50.000;7.360;2022-10-16T06:28:53;11.45;;;2.90;;
39400;SDS011;54391;50.000;7.360;2022-10-16T06:31:23;0.40;;;0.32;;
39400;SDS011;54391;50.000;7.360;2022-10-16T06:33:53;0.98;;;0.50;;
39400;SDS011;54391;50.000;7.360;2022-10-16T06:36:21;1.60;;;0.38;;
39400;SDS011;54391;50.000;7.360;2022-10-16T06:38:49;0.60;;;0.43;;
39400;SDS011;54391;50.000;7.360;2022-10-16T06:41:17;0.60;;;0.50;;
39400;SDS011;54391;50.000;7.360;2022-10-16T06:43:46;1.00;;;0.50;;
39400;SDS011;54391;50.000;7.360;2022-10-16T06:46:16;0.93;;;0.50;;
39400;SDS011;54391;50.000;7.360;2022-10-16T06:48:45;0.60;;;0.40;;
39400;SDS011;54391;50.000;7.360;2022-10-16T06:51:13;1.42;;;0.40;;
39400;SDS011;54391;50.000;7.360;2022-10-16T06:53:42;0.63;;;0.35;;
39400;SDS011;54391;50.000;7.360;2022-10-16T06:56:11;0.88;;;0.45;;
39400;SDS011;54391;50.000;7.360;2022-10-16T06:58:40;0.50;;;0.30;;
39400;SDS011;54391;50.000;7.360;2022-10-16T07:01:08;0.60;;;0.32;;
39400;SDS011;54391;50.000;7.360;2022-10-16T07:03:37;0.52;;;0.20;;
39400;SDS011;54391;50.000;7.360;2022-10-16T07:06:05;0.60;;;0.20;;
39400;SDS011;54391;50.000;7.360;2022-10-16T07:08:34;0.45;;;0.20;;
39400;SDS011;54391;50.000;7.360;2022-10-16T07:11:03;0.20;;;0.20;;
39400;SDS011;54391;50.000;7.360;2022-10-16T07:13:32;0.85;;;0.40;;
39400;SDS011;54391;50.000;7.360;2022-10-16T07:16:03;1.38;;;0.40;;
39400;SDS011;54391;50.000;7.360;2022-10-16T07:18:31;0.35;;;0.20;;
39400;SDS011;54391;50.000;7.360;2022-10-16T07:21:04;0.90;;;0.22;;
39400;SDS011;54391;50.000;7.360;2022-10-16T07:23:32;0.90;;;0.10;;
39400;SDS011;54391;50.000;7.360;2022-10-16T07:26:00;0.63;;;0.20;;
39400;SDS011;54391;50.000;7.360;2022-10-16T07:28:28;0.82;;;0.32;;
39400;SDS011;54391;50.000;7.360;2022-10-16T07:30:59;0.10;;;0.10;;
39400;SDS011;54391;50.000;7.360;2022-10-16T07:33:29;0.52;;;0.10;;
39400;SDS011;54391;50.000;7.360;2022-10-16T07:35:57;0.13;;;0.08;;
39400;SDS011;54391;50.000;7.360;2022-10-16T07:38:26;0.90;;;0.10;;
39400;SDS011;54391;50.000;7.360;2022-10-16T07:40:57;0.70;;;0.10;;
39400;SDS011;54391;50.000;7.360;2022-10-16T07:43:24;1.10;;;0.10;;
39400;SDS011;54391;50.000;7.360;2022-10-16T07:45:52;0.30;;;0.20;;
39400;SDS011;54391;50.000;7.360;2022-10-16T07:48:20;1.45;;;0.40;;
39400;SDS011;54391;50.000;7.360;2022-10-16T07:50:48;0.10;;;0.10;;
39400;SDS011;54391;50.000;7.360;2022-10-16T07:53:16;0.13;;;0.10;;
39400;SDS011;54391;50.000;7.360;2022-10-16T07:55:45;0.17;;;0.10;;
39400;SDS011;54391;50.000;7.360;2022-10-16T07:58:12;0.20;;;0.13;;
39400;SDS011;54391;50.000;7.360;2022-10-16T08:00:40;1.30;;;0.30;;
39400;SDS011;54391;50.000;7.360;2022-10-16T08:03:07;0.20;;;0.10;;
39400;SDS011;54391;50.000;7.360;2022-10-16T08:05:35;0.10;;;0.10;;
39400;SDS011;54391;50.000;7.360;2022-10-16T08:08:02;1.20;;;0.10;;
39400;SDS011;54391;50.000;7.360;2022-10-16T08:10:30;0.28;;;0.10;;
39400;SDS011;54391;50.000;7.360;2022-10-16T08:12:58;0.30;;;0.10;;
39400;SDS011;54391;50.000;7.360;2022-10-16T08:15:27;0.28;;;0.00;;
39400;SDS011;54391;50.000;7.360;2022-10-16T08:17:55;0.30;;;0.10;;
39400;SDS011;54391;50.000;7.360;2022-10-16T08:20:24;0.20;;;0.10;;
39400;SDS011;54391;50.000;7.360;2022-10-16T08:22:52;0.10;;;0.03;;
39400;SDS011;54391;50.000;7.360;2022-10-16T08:25:19;0.10;;;0.10;;
39400;SDS011;54391;50.000;7.360;2022-10-16T08:27:47;0.20;;;0.05;;
39400;SDS011;54391;50.000;7.360;2022-10-16T08:30:16;0.47;;;0.00;;
39400;SDS011;54391;50.000;7.360;2022-10-16T08:32:44;0.32;;;0.10;;
39400;SDS011;54391;50.000;7.360;2022-10-16T08:35:12;0.20;;;0.10;;
39400;SDS011;54391;50.000;7.360;2022-10-16T08:37:40;0.40;;;0.00;;
39400;SDS011;54391;50.000;7.360;2022-10-16T08:40:13;0.05;;;0.00;;
39400;SDS011;54391;50.000;7.360;2022-10-16T08:42:51;0.43;;;0.00;;
39400;SDS011;54391;50.000;7.360;2022-10-16T08:45:34;0.08;;;0.00;;
39400;SDS011;54391;50.000;7.360;2022-10-16T08:48:14;0.10;;;0.00;;
39400;SDS011;54391;50.000;7.360;2022-10-16T08:50:48;0.10;;;0.10;;
39400;SDS011;54391;50.000;7.360;2022-10-16T08:53:18;0.45;;;0.15;;
39400;SDS011;54391;50.000;7.360;2022-10-16T08:55:51;0.43;;;0.20;;
39400;SDS011;54391;50.000;7.360;2022-10-16T08:58:20;0.03;;;0.00;;
39400;SDS011;54391;50.000;7.360;2022-10-16T09:00:52;0.00;;;0.00;;
39400;SDS011;54391;50.000;7.360;2022-10-16T09:03:23;0.17;;;0.00;;
39400;SDS011;54391;50.000;7.360;2022-10-16T09:06:19;0.30;;;0.30;;
39400;SDS011;54391;50.000;7.360;2022-10-16T09:08:58;0.20;;;0.10;;
39400;SDS011;54391;50.000;7.360;2022-10-16T09:11:41;0.28;;;0.10;;
39400;SDS011;54391;50.000;7.360;2022-10-16T09:17:16;0.20;;;0.08;;
39400;SDS011;54391;50.000;7.360;2022-10-16T09:22:27;0.32;;;0.10;;
39400;SDS011;54391;50.000;7.360;2022-10-16T09:24:59;0.05;;;0.00;;
39400;SDS011;54391;50.000;7.360;2022-10-16T09:27:31;0.22;;;0.00;;
39400;SDS011;54391;50.000;7.360;2022-10-16T09:29:58;0.08;;;0.00;;
39400;SDS011;54391;50.000;7.360;2022-10-16T09:32:27;0.30;;;0.10;;
39400;SDS011;54391;50.000;7.360;2022-10-16T09:34:55;0.10;;;0.00;;
39400;SDS011;54391;50.000;7.360;2022-10-16T09:37:23;0.00;;;0.00;;
39400;SDS011;54391;50.000;7.360;2022-10-16T09:39:51;0.00;;;0.00;;
39400;SDS011;54391;50.000;7.360;2022-10-16T09:42:21;0.00;;;0.00;;
39400;SDS011;54391;50.000;7.360;2022-10-16T09:44:51;0.00;;;0.00;;
39400;SDS011;54391;50.000;7.360;2022-10-16T09:47:20;0.20;;;0.00;;
39400;SDS011;54391;50.000;7.360;2022-10-16T09:49:52;0.00;;;0.00;;
39400;SDS011;54391;50.000;7.360;2022-10-16T09:52:21;0.52;;;0.10;;
39400;SDS011;54391;50.000;7.360;2022-10-16T09:54:50;0.13;;;0.00;;
39400;SDS011;54391;50.000;7.360;2022-10-16T09:57:18;0.10;;;0.00;;
39400;SDS011;54391;50.000;7.360;2022-10-16T09:59:46;0.38;;;0.03;;
39400;SDS011;54391;50.000;7.360;2022-10-16T10:02:14;0.15;;;0.10;;
39400;SDS011;54391;50.000;7.360;2022-10-16T10:04:45;0.80;;;0.10;;
39400;SDS011;54391;50.000;7.360;2022-10-16T10:07:23;0.22;;;0.10;;
39400;SDS011;54391;50.000;7.360;2022-10-16T10:09:53;0.20;;;0.00;;
39400;SDS011;54391;50.000;7.360;2022-10-16T10:12:21;0.52;;;0.10;;
39400;SDS011;54391;50.000;7.360;2022-10-16T10:14:51;0.32;;;0.05;;
39400;SDS011;54391;50.000;7.360;2022-10-16T10:17:21;1.23;;;0.10;;
39400;SDS011;54391;50.000;7.360;2022-10-16T10:19:51;0.00;;;0.00;;
39400;SDS011;54391;50.000;7.360;2022-10-16T10:22:25;0.10;;;0.10;;
39400;SDS011;54391;50.000;7.360;2022-10-16T10:28:08;0.88;;;0.10;;
39400;SDS011;54391;50.000;7.360;2022-10-16T10:30:51;0.57;;;0.20;;
39400;SDS011;54391;50.000;7.360;2022-10-16T10:33:25;0.40;;;0.10;;
39400;SDS011;54391;50.000;7.360;2022-10-16T10:36:01;0.65;;;0.20;;
39400;SDS011;54391;50.000;7.360;2022-10-16T10:38:40;0.88;;;0.20;;
39400;SDS011;54391;50.000;7.360;2022-10-16T10:41:19;0.47;;;0.20;;
39400;SDS011;54391;50.000;7.360;2022-10-16T10:44:04;0.15;;;0.10;;
39400;SDS011;54391;50.000;7.360;2022-10-16T10:46:38;0.20;;;0.20;;
39400;SDS011;54391;50.000;7.360;2022-10-16T10:49:12;0.50;;;0.20;;
39400;SDS011;54391;50.000;7.360;2022-10-16T10:51:53;1.15;;;0.40;;
39400;SDS011;54391;50.000;7.360;2022-10-16T10:54:35;0.70;;;0.40;;
39400;SDS011;54391;50.000;7.360;2022-10-16T10:57:09;0.35;;;0.25;;
39400;SDS011;54391;50.000;7.360;2022-10-16T10:59:48;0.93;;;0.50;;
39400;SDS011;54391;50.000;7.360;2022-10-16T11:02:32;1.05;;;0.35;;
39400;SDS011;54391;50.000;7.360;2022-10-16T11:08:06;1.10;;;0.40;;
39400;SDS011;54391;50.000;7.360;2022-10-16T11:10:42;0.82;;;0.20;;
39400;SDS011;54391;50.000;7.360;2022-10-16T11:13:16;0.32;;;0.20;;
39400;SDS011;54391;50.000;7.360;2022-10-16T11:15:53;1.08;;;0.40;;
39400;SDS011;54391;50.000;7.360;2022-10-16T11:18:30;0.65;;;0.30;;
39400;SDS011;54391;50.000;7.360;2022-10-16T11:21:07;1.35;;;0.40;;
39400;SDS011;54391;50.000;7.360;2022-10-16T11:23:40;1.98;;;0.60;;
39400;SDS011;54391;50.000;7.360;2022-10-16T11:26:14;0.95;;;0.60;;
39400;SDS011;54391;50.000;7.360;2022-10-16T11:28:47;0.60;;;0.43;;
39400;SDS011;54391;50.000;7.360;2022-10-16T11:31:17;0.93;;;0.52;;
39400;SDS011;54391;50.000;7.360;2022-10-16T11:33:51;2.33;;;0.68;;
39400;SDS011;54391;50.000;7.360;2022-10-16T11:36:31;0.70;;;0.40;;
39400;SDS011;54391;50.000;7.360;2022-10-16T11:39:04;1.15;;;0.50;;
39400;SDS011;54391;50.000;7.360;2022-10-16T11:41:44;0.60;;;0.40;;
39400;SDS011;54391;50.000;7.360;2022-10-16T11:46:48;0.80;;;0.50;;
39400;SDS011;54391;50.000;7.360;2022-10-16T11:49:25;1.35;;;0.50;;
39400;SDS011;54391;50.000;7.360;2022-10-16T11:51:59;0.63;;;0.50;;
39400;SDS011;54391;50.000;7.360;2022-10-16T11:57:07;1.23;;;0.60;;
39400;SDS011;54391;50.000;7.360;2022-10-16T11:59:39;1.13;;;0.50;;
39400;SDS011;54391;50.000;7.360;2022-10-16T12:02:20;0.82;;;0.50;;
39400;SDS011;54391;50.000;7.360;2022-10-16T12:05:03;1.10;;;0.63;;
39400;SDS011;54391;50.000;7.360;2022-10-16T12:07:48;0.87;;;0.70;;
39400;SDS011;54391;50.000;7.360;2022-10-16T12:10:24;1.25;;;0.70;;
39400;SDS011;54391;50.000;7.360;2022-10-16T12:12:54;1.15;;;0.77;;
39400;SDS011;54391;50.000;7.360;2022-10-16T12:15:24;1.02;;;0.77;;
39400;SDS011;54391;50.000;7.360;2022-10-16T12:17:53;1.67;;;0.50;;
39400;SDS011;54391;50.000;7.360;2022-10-16T12:20:22;1.17;;;0.77;;
39400;SDS011;54391;50.000;7.360;2022-10-16T12:22:54;1.30;;;0.70;;
39400;SDS011;54391;50.000;7.360;2022-10-16T12:25:24;1.98;;;0.80;;
39400;SDS011;54391;50.000;7.360;2022-10-16T12:28:00;1.38;;;0.70;;
39400;SDS011;54391;50.000;7.360;2022-10-16T12:30:30;1.58;;;0.90;;
39400;SDS011;54391;50.000;7.360;2022-10-16T12:33:00;3.53;;;0.80;;
39400;SDS011;54391;50.000;7.360;2022-10-16T12:35:30;1.20;;;0.80;;
39400;SDS011;54391;50.000;7.360;2022-10-16T12:38:15;1.08;;;0.70;;
39400;SDS011;54391;50.000;7.360;2022-10-16T12:40:44;1.33;;;0.50;;
39400;SDS011;54391;50.000;7.360;2022-10-16T12:46:23;2.50;;;0.75;;
39400;SDS011;54391;50.000;7.360;2022-10-16T12:49:05;1.25;;;0.90;;
39400;SDS011;54391;50.000;7.360;2022-10-16T12:54:15;1.15;;;0.90;;
39400;SDS011;54391;50.000;7.360;2022-10-16T12:56:49;0.88;;;0.60;;
39400;SDS011;54391;50.000;7.360;2022-10-16T12:59:35;2.35;;;0.90;;
39400;SDS011;54391;50.000;7.360;2022-10-16T13:02:20;1.15;;;0.70;;
39400;SDS011;54391;50.000;7.360;2022-10-16T13:05:16;1.13;;;0.70;;
39400;SDS011;54391;50.000;7.360;2022-10-16T13:08:01;1.35;;;0.75;;
39400;SDS011;54391;50.000;7.360;2022-10-16T13:10:40;1.83;;;1.00;;
39400;SDS011;54391;50.000;7.360;2022-10-16T13:13:31;1.02;;;0.82;;
39400;SDS011;54391;50.000;7.360;2022-10-16T13:16:16;1.15;;;0.80;;
39400;SDS011;54391;50.000;7.360;2022-10-16T13:18:52;1.95;;;0.77;;
39400;SDS011;54391;50.000;7.360;2022-10-16T13:21:34;2.30;;;1.15;;
39400;SDS011;54391;50.000;7.360;2022-10-16T13:24:12;1.20;;;0.77;;
39400;SDS011;54391;50.000;7.360;2022-10-16T13:26:52;2.22;;;1.20;;
39400;SDS011;54391;50.000;7.360;2022-10-16T13:29:23;1.30;;;1.00;;
39400;SDS011;54391;50.000;7.360;2022-10-16T13:31:59;1.25;;;0.90;;
39400;SDS011;54391;50.000;7.360;2022-10-16T13:34:33;2.33;;;1.15;;
39400;SDS011;54391;50.000;7.360;2022-10-16T13:37:16;2.45;;;1.50;;
39400;SDS011;54391;50.000;7.360;2022-10-16T13:39:44;3.10;;;1.75;;
39400;SDS011;54391;50.000;7.360;2022-10-16T13:42:13;2.05;;;1.40;;
39400;SDS011;54391;50.000;7.360;2022-10-16T13:44:45;1.48;;;1.05;;
39400;SDS011;54391;50.000;7.360;2022-10-16T13:47:18;1.75;;;1.17;;
39400;SDS011;54391;50.000;7.360;2022-10-16T13:49:47;1.10;;;0.90;;
39400;SDS011;54391;50.000;7.360;2022-10-16T13:52:15;2.95;;;1.13;;
39400;SDS011;54391;50.000;7.360;2022-10-16T13:54:44;2.63;;;1.10;;
39400;SDS011;54391;50.000;7.360;2022-10-16T13:57:12;1.90;;;1.30;;
39400;SDS011;54391;50.000;7.360;2022-10-16T13:59:41;2.35;;;1.30;;
39400;SDS011;54391;50.000;7.360;2022-10-16T14:02:14;2.45;;;1.38;;
39400;SDS011;54391;50.000;7.360;2022-10-16T14:04:48;2.05;;;1.00;;
39400;SDS011;54391;50.000;7.360;2022-10-16T14:07:18;1.67;;;1.13;;
39400;SDS011;54391;50.000;7.360;2022-10-16T14:09:49;1.83;;;1.23;;
39400;SDS011;54391;50.000;7.360;2022-10-16T14:12:17;2.40;;;1.30;;
39400;SDS011;54391;50.000;7.360;2022-10-16T14:14:45;1.25;;;1.00;;
39400;SDS011;54391;50.000;7.360;2022-10-16T14:17:14;1.65;;;1.10;;
39400;SDS011;54391;50.000;7.360;2022-10-16T14:19:46;1.45;;;0.90;;
39400;SDS011;54391;50.000;7.360;2022-10-16T14:22:20;1.95;;;1.00;;
39400;SDS011;54391;50.000;7.360;2022-10-16T14:24:53;1.55;;;1.00;;
39400;SDS011;54391;50.000;7.360;2022-10-16T14:27:23;3.10;;;1.25;;
39400;SDS011;54391;50.000;7.360;2022-10-16T14:32:55;1.63;;;1.10;;
39400;SDS011;54391;50.000;7.360;2022-10-16T14:35:27;3.15;;;0.98;;
39400;SDS011;54391;50.000;7.360;2022-10-16T14:37:57;2.17;;;1.17;;
39400;SDS011;54391;50.000;7.360;2022-10-16T14:40:28;1.38;;;1.02;;
39400;SDS011;54391;50.000;7.360;2022-10-16T14:42:57;2.22;;;1.05;;
39400;SDS011;54391;50.000;7.360;2022-10-16T14:45:26;1.42;;;1.00;;
39400;SDS011;54391;50.000;7.360;2022-10-16T14:47:56;1.45;;;1.00;;
39400;SDS011;54391;50.000;7.360;2022-10-16T14:50:26;1.48;;;1.00;;
39400;SDS011;54391;50.000;7.360;2022-10-16T14:52:55;2.13;;;1.10;;
39400;SDS011;54391;50.000;7.360;2022-10-16T14:55:22;1.70;;;1.20;;
39400;SDS011;54391;50.000;7.360;2022-10-16T14:57:50;1.63;;;1.50;;
39400;SDS011;54391;50.000;7.360;2022-10-16T15:00:18;2.15;;;1.33;;
39400;SDS011;54391;50.000;7.360;2022-10-16T15:02:48;2.10;;;1.70;;
39400;SDS011;54391;50.000;7.360;2022-10-16T15:05:17;2.47;;;1.63;;
39400;SDS011;54391;50.000;7.360;2022-10-16T15:07:47;2.72;;;2.10;;
39400;SDS011;54391;50.000;7.360;2022-10-16T15:10:15;2.70;;;1.80;;
39400;SDS011;54391;50.000;7.360;2022-10-16T15:12:43;3.58;;;2.22;;
39400;SDS011;54391;50.000;7.360;2022-10-16T15:15:15;3.05;;;2.63;;
39400;SDS011;54391;50.000;7.360;2022-10-16T15:17:55;3.05;;;2.53;;
39400;SDS011;54391;50.000;7.360;2022-10-16T15:20:24;3.00;;;2.47;;
39400;SDS011;54391;50.000;7.360;2022-10-16T15:22:54;2.70;;;2.40;;
39400;SDS011;54391;50.000;7.360;2022-10-16T15:25:29;3.55;;;2.85;;
39400;SDS011;54391;50.000;7.360;2022-10-16T15:27:59;3.25;;;2.70;;
39400;SDS011;54391;50.000;7.360;2022-10-16T15:30:28;4.65;;;2.70;;
39400;SDS011;54391;50.000;7.360;2022-10-16T15:32:56;3.50;;;2.78;;
39400;SDS011;54391;50.000;7.360;2022-10-16T15:35:23;3.13;;;2.45;;
39400;SDS011;54391;50.000;7.360;2022-10-16T15:37:51;4.25;;;2.78;;